Time;durP1;ratioP1;P1;durP2;ratioP2;P2;SDS_P1;SDS_P2;PMS_P1;PMS_P2;Temp;Humidity;BMP_temperature;BMP_pressure;BME280_temperature;BME280_humidity;BME280_pressure;Samples;Min_cycle;Max_cycle;Signal;HPM_P1;HPM_P2
2021/06/16 00:00:57;;;;;;;11.35;2.63;;;;;;;16.38;87.58;100992.28;5218960;28;20053;-77
2021/06/16 00:03:28;;;;;;;7.07;2.40;;;;;;;16.38;87.71;100992.28;5212090;28;20033;-77
2021/06/16 00:05:58;;;;;;;6.88;2.72;;;;;;;16.40;88.28;100998.34;5209609;28;20280;-77
2021/06/16 00:08:28;;;;;;;7.97;2.35;;;;;;;16.37;88.99;100995.88;5210553;28;20120;-77
2021/06/16 00:10:59;;;;;;;10.30;2.63;;;;;;;16.36;89.25;100996.78;5207771;28;20036;-77
2021/06/16 00:13:29;;;;;;;6.80;2.58;;;;;;;16.21;89.55;100988.81;5210991;28;20021;-76
2021/06/16 00:15:59;;;;;;;7.72;2.33;;;;;;;16.22;89.86;100993.16;5210321;28;20509;-76
2021/06/16 00:18:29;;;;;;;11.57;2.60;;;;;;;16.06;89.86;101000.16;5212095;28;20044;-77
2021/06/16 00:21:00;;;;;;;6.40;2.50;;;;;;;16.17;89.72;100993.38;5210015;28;20040;-76
2021/06/16 00:23:30;;;;;;;7.20;2.47;;;;;;;16.15;89.57;100989.97;5210349;28;20029;-77
2021/06/16 00:26:00;;;;;;;7.82;2.30;;;;;;;16.09;89.32;100995.56;5216561;28;20024;-76
2021/06/16 00:28:31;;;;;;;10.10;2.65;;;;;;;15.82;88.62;100991.69;5217823;28;20391;-77
2021/06/16 00:31:01;;;;;;;11.77;2.60;;;;;;;15.74;89.45;100983.28;5213823;28;20025;-77
2021/06/16 00:33:31;;;;;;;11.82;2.70;;;;;;;15.59;89.29;100994.63;5215610;28;20263;-77
2021/06/16 00:36:02;;;;;;;10.57;2.60;;;;;;;15.52;89.50;100987.09;5209662;28;20087;-77
2021/06/16 00:38:32;;;;;;;5.72;2.42;;;;;;;15.75;89.38;100995.56;5209162;28;20061;-77
2021/06/16 00:41:02;;;;;;;7.82;2.40;;;;;;;15.72;88.35;100998.34;5203896;28;20029;-77
2021/06/16 00:43:33;;;;;;;6.10;2.35;;;;;;;15.71;88.41;100995.78;5211822;28;20048;-77
2021/06/16 00:46:03;;;;;;;5.15;1.98;;;;;;;15.57;89.22;100996.47;5214160;28;20029;-77
2021/06/16 00:48:33;;;;;;;7.20;2.42;;;;;;;15.49;90.32;100997.75;5207475;28;20037;-77
2021/06/16 00:51:04;;;;;;;8.73;2.58;;;;;;;15.11;91.59;100990.81;5211565;28;20094;-77
2021/06/16 00:53:34;;;;;;;6.97;2.45;;;;;;;14.98;92.25;100990.56;5207952;28;20025;-77
2021/06/16 00:56:04;;;;;;;6.40;2.30;;;;;;;15.08;91.53;100994.47;5215268;28;20095;-77
2021/06/16 00:58:35;;;;;;;8.25;2.70;;;;;;;14.95;92.72;100990.69;5206092;28;20078;-77
2021/06/16 01:01:25;;;;;;;6.68;2.67;;;;;;;14.76;92.81;100988.16;5208966;28;20036;-76
2021/06/16 01:04:13;;;;;;;7.70;2.53;;;;;;;14.73;93.16;100997.03;5209470;28;20453;-77
2021/06/16 01:07:01;;;;;;;6.50;2.45;;;;;;;14.47;94.47;100991.22;5213680;28;20036;-76
2021/06/16 01:09:47;;;;;;;7.40;2.45;;;;;;;14.62;92.69;100993.19;5212243;28;20127;-77
2021/06/16 01:12:55;;;;;;;8.73;2.45;;;;;;;15.10;90.96;100994.38;5213097;28;20525;-77
2021/06/16 01:15:29;;;;;;;7.68;2.72;;;;;;;15.06;90.33;100993.69;5210901;28;20045;-77
2021/06/16 01:18:02;;;;;;;11.70;2.75;;;;;;;15.09;89.70;100990.91;5211876;28;20032;-78
2021/06/16 01:20:40;;;;;;;7.13;2.67;;;;;;;15.14;90.02;100990.66;5211739;28;20048;-78
2021/06/16 01:23:37;;;;;;;7.10;2.65;;;;;;;15.05;89.04;100984.06;5212280;28;20029;-79
2021/06/16 01:26:19;;;;;;;9.93;2.58;;;;;;;14.83;90.87;100987.78;5209600;28;20040;-78
2021/06/16 01:28:52;;;;;;;6.75;2.45;;;;;;;14.66;91.99;100987.72;5213235;28;20021;-80
2021/06/16 01:31:25;;;;;;;10.45;2.80;;;;;;;14.51;92.12;100987.53;5217395;28;20557;-78
2021/06/16 01:33:55;;;;;;;7.25;2.22;;;;;;;14.49;91.91;100985.00;5216087;28;20490;-79
2021/06/16 01:36:26;;;;;;;7.63;2.40;;;;;;;14.44;92.84;100996.63;5210201;28;20057;-78
2021/06/16 01:38:56;;;;;;;5.78;2.50;;;;;;;14.48;91.63;100982.41;5210174;28;20079;-79
2021/06/16 01:41:27;;;;;;;6.30;2.50;;;;;;;14.62;91.19;100988.75;5212636;28;20036;-78
2021/06/16 01:43:58;;;;;;;6.97;2.40;;;;;;;14.67;91.12;100984.16;5213329;28;20072;-79
2021/06/16 01:46:30;;;;;;;6.22;2.70;;;;;;;14.60;91.07;100990.59;5212010;28;20025;-78
2021/06/16 01:49:00;;;;;;;5.03;2.08;;;;;;;14.68;89.94;100988.50;5213953;28;20029;-78
2021/06/16 01:51:32;;;;;;;6.57;2.20;;;;;;;14.68;90.82;100980.59;5213019;28;20033;-80
2021/06/16 01:54:02;;;;;;;7.20;2.08;;;;;;;14.73;89.79;100980.41;5209054;28;20499;-79
2021/06/16 01:56:35;;;;;;;5.57;2.33;;;;;;;14.30;93.02;100980.59;5233844;28;20066;-77
2021/06/16 01:59:07;;;;;;;10.45;2.72;;;;;;;14.06;94.04;100981.66;5223638;28;20025;-80
2021/06/16 02:01:38;;;;;;;5.40;2.17;;;;;;;14.22;92.50;100973.06;5228818;28;20036;-78
2021/06/16 02:04:09;;;;;;;6.63;2.53;;;;;;;14.26;92.53;100977.25;5228062;28;20398;-76
2021/06/16 02:06:42;;;;;;;7.18;2.50;;;;;;;14.11;93.26;100983.13;5216364;28;20454;-78
2021/06/16 02:09:14;;;;;;;5.40;2.35;;;;;;;14.25;92.30;100985.22;5215465;28;20040;-77
2021/06/16 02:11:44;;;;;;;9.60;2.42;;;;;;;13.99;93.62;100982.81;5216783;28;20068;-76
2021/06/16 02:14:17;;;;;;;8.40;2.40;;;;;;;13.85;93.68;100986.03;5212311;28;20063;-76
2021/06/16 02:17:00;;;;;;;8.52;2.17;;;;;;;14.05;92.92;100979.94;5212313;28;20033;-76
2021/06/16 02:19:32;;;;;;;10.15;2.50;;;;;;;14.01;93.51;100981.84;5214963;28;20064;-76
2021/06/16 02:22:05;;;;;;;5.22;2.40;;;;;;;13.92;93.32;100981.38;5213794;28;20021;-77
2021/06/16 02:24:36;;;;;;;6.25;2.17;;;;;;;13.94;93.20;100992.69;5218713;28;20024;-77
2021/06/16 02:27:07;;;;;;;7.57;2.65;;;;;;;13.99;93.70;100977.56;5230352;28;20108;-78
2021/06/16 02:29:37;;;;;;;7.35;2.42;;;;;;;13.77;94.09;100979.41;5218983;28;20067;-77
2021/06/16 02:32:07;;;;;;;5.80;2.13;;;;;;;13.79;94.43;100988.06;5214037;28;20032;-76
2021/06/16 02:34:38;;;;;;;6.78;2.50;;;;;;;13.97;94.42;100985.53;5214813;28;20055;-77
2021/06/16 02:37:12;;;;;;;6.95;2.35;;;;;;;14.17;91.69;100980.31;5211670;28;20087;-76
2021/06/16 02:39:56;;;;;;;5.70;2.25;;;;;;;14.09;92.15;100969.22;5213921;28;20025;-75
2021/06/16 02:42:27;;;;;;;4.55;1.95;;;;;;;14.16;91.13;100970.72;5212063;28;20034;-76
2021/06/16 02:45:01;;;;;;;5.07;2.45;;;;;;;13.61;94.33;100970.47;5214150;28;20035;-77
2021/06/16 02:47:36;;;;;;;6.28;2.28;;;;;;;13.67;92.97;100976.31;5211428;28;20087;-77
2021/06/16 02:50:07;;;;;;;7.70;2.42;;;;;;;13.80;91.95;100971.38;5213391;28;20024;-77
2021/06/16 02:52:42;;;;;;;7.65;2.25;;;;;;;13.61;92.55;100966.03;5212554;28;20556;-77
2021/06/16 02:55:13;;;;;;;9.07;2.20;;;;;;;13.22;93.29;100964.22;5220480;28;20052;-77
2021/06/16 02:57:44;;;;;;;9.35;2.50;;;;;;;13.25;93.92;100970.16;5222342;28;20572;-78
2021/06/16 03:00:15;;;;;;;9.63;2.90;;;;;;;13.04;94.73;100967.56;5210889;28;20163;-78
2021/06/16 03:02:47;;;;;;;9.27;2.85;;;;;;;12.84;97.07;100963.97;5220870;28;20028;-79
2021/06/16 03:05:23;;;;;;;9.02;2.92;;;;;;;12.60;99.46;100968.38;5216189;28;20033;-78
2021/06/16 03:07:56;;;;;;;7.72;2.80;;;;;;;12.79;98.53;100976.41;5213377;28;20024;-78
2021/06/16 03:10:29;;;;;;;6.20;2.58;;;;;;;13.05;97.24;100964.03;5210729;28;20133;-78
2021/06/16 03:13:01;;;;;;;9.65;2.92;;;;;;;13.43;94.19;100969.44;5210257;28;20499;-78
2021/06/16 03:15:33;;;;;;;6.55;3.10;;;;;;;13.30;93.11;100968.25;5210120;28;20379;-78
2021/06/16 03:18:04;;;;;;;9.68;3.10;;;;;;;13.49;93.45;100965.69;5212764;28;20032;-78
2021/06/16 03:20:38;;;;;;;8.35;2.60;;;;;;;13.36;94.41;100969.72;5214562;28;20029;-78
2021/06/16 03:23:09;;;;;;;7.75;2.90;;;;;;;13.50;94.19;100973.53;5209128;28;20132;-78
2021/06/16 03:25:41;;;;;;;8.77;2.80;;;;;;;13.03;97.11;100976.34;5214622;28;20689;-78
2021/06/16 03:28:15;;;;;;;7.00;2.55;;;;;;;13.04;98.30;100964.94;5217790;28;20044;-78
2021/06/16 03:30:45;;;;;;;7.22;3.00;;;;;;;13.17;94.81;100963.53;5214910;28;20033;-78
2021/06/16 03:33:16;;;;;;;8.18;2.83;;;;;;;13.29;95.70;100968.28;5215673;28;20104;-78
2021/06/16 03:35:47;;;;;;;6.45;2.70;;;;;;;13.52;94.48;100965.56;5210978;28;20111;-78
2021/06/16 03:38:18;;;;;;;10.07;2.92;;;;;;;13.15;96.15;100970.59;5212576;28;20029;-78
2021/06/16 03:40:49;;;;;;;5.32;2.47;;;;;;;13.22;96.52;100972.09;5212456;28;20021;-78
2021/06/16 03:43:22;;;;;;;8.30;3.00;;;;;;;13.01;97.82;100975.53;5209434;28;20021;-78
2021/06/16 03:45:53;;;;;;;10.63;2.95;;;;;;;13.33;95.12;100970.72;5206888;28;20184;-78
2021/06/16 03:48:24;;;;;;;10.00;2.78;;;;;;;13.41;94.31;100968.63;5206789;28;20029;-77
2021/06/16 03:50:55;;;;;;;11.25;3.00;;;;;;;13.13;96.50;100969.81;5210199;28;20037;-78
2021/06/16 03:53:27;;;;;;;6.47;2.88;;;;;;;12.94;98.52;100963.59;5203152;28;20036;-79
2021/06/16 03:56:00;;;;;;;8.15;3.00;;;;;;;12.87;96.80;100969.09;5222700;28;20029;-78
2021/06/16 03:58:31;;;;;;;13.00;2.60;;;;;;;12.82;97.49;100961.38;5218421;28;20621;-78
2021/06/16 04:01:01;;;;;;;12.10;2.50;;;;;;;13.12;94.71;100962.84;5219052;28;20067;-77
2021/06/16 04:03:32;;;;;;;8.60;2.20;;;;;;;13.05;97.03;100964.88;5228956;28;20036;-76
2021/06/16 04:06:02;;;;;;;8.15;3.03;;;;;;;12.96;97.18;100968.78;5215084;28;20594;-76
2021/06/16 04:08:35;;;;;;;7.82;2.28;;;;;;;13.28;97.60;100962.19;5212277;28;20052;-78
2021/06/16 04:11:06;;;;;;;7.75;2.45;;;;;;;13.25;96.55;100964.09;5211686;28;20082;-79
2021/06/16 04:13:36;;;;;;;5.38;2.55;;;;;;;13.69;95.75;100963.97;5211450;28;20029;-79
2021/06/16 04:16:08;;;;;;;6.45;2.00;;;;;;;14.14;93.71;100955.88;5212926;28;20025;-77
2021/06/16 04:18:40;;;;;;;8.05;2.72;;;;;;;14.45;91.66;100958.88;5211172;28;20108;-77
2021/06/16 04:21:10;;;;;;;5.93;2.10;;;;;;;14.41;92.63;100962.59;5213392;28;20032;-77
2021/06/16 04:23:40;;;;;;;11.63;2.70;;;;;;;14.09;93.45;100950.81;5220147;28;20021;-77
2021/06/16 04:26:11;;;;;;;7.13;2.40;;;;;;;14.47;91.25;100960.53;5235296;28;20033;-76
2021/06/16 04:28:41;;;;;;;11.18;2.17;;;;;;;13.98;94.61;100962.72;5224667;28;20277;-79
2021/06/16 04:31:12;;;;;;;8.38;2.25;;;;;;;14.12;95.18;100955.09;5217434;28;20151;-79
2021/06/16 04:33:42;;;;;;;6.60;2.20;;;;;;;14.51;92.78;100951.56;5222418;28;20535;-77
2021/06/16 04:36:12;;;;;;;8.20;2.30;;;;;;;14.95;91.60;100948.59;5208023;28;20025;-77
2021/06/16 04:38:43;;;;;;;7.32;2.40;;;;;;;15.57;89.15;100942.91;5219523;28;20124;-77
2021/06/16 04:41:13;;;;;;;7.13;2.00;;;;;;;17.24;82.52;100944.34;5218627;28;21365;-77
2021/06/16 04:43:43;;;;;;;4.38;1.48;;;;;;;20.34;73.68;100927.03;5220251;28;20040;-76
2021/06/16 04:46:13;;;;;;;7.43;1.80;;;;;;;21.67;65.83;100921.59;5220595;28;20391;-76
2021/06/16 04:48:44;;;;;;;6.18;1.83;;;;;;;22.77;64.31;100912.81;5220502;28;20743;-78
2021/06/16 04:51:14;;;;;;;5.07;1.67;;;;;;;22.15;62.90;100915.19;5220851;28;20031;-78
2021/06/16 04:53:44;;;;;;;4.90;1.60;;;;;;;23.42;61.69;100918.13;5220716;28;20386;-78
2021/06/16 04:56:15;;;;;;;4.73;1.53;;;;;;;23.74;57.89;100913.59;5235867;28;20298;-77
2021/06/16 04:58:45;;;;;;;6.78;1.27;;;;;;;24.37;58.88;100911.63;5225438;28;20344;-77
2021/06/16 05:01:15;;;;;;;7.18;1.60;;;;;;;24.78;57.91;100909.72;5220536;28;20061;-76
2021/06/16 05:03:46;;;;;;;5.40;1.47;;;;;;;23.86;59.88;100917.94;5227405;28;20067;-78
2021/06/16 05:06:16;;;;;;;4.93;1.67;;;;;;;23.85;59.85;100911.75;5232267;28;20029;-78
2021/06/16 05:08:46;;;;;;;4.03;1.20;;;;;;;25.20;56.58;100905.03;5220390;28;20029;-78
2021/06/16 05:11:17;;;;;;;6.85;1.40;;;;;;;25.10;56.78;100902.31;5217501;28;20270;-77
2021/06/16 05:13:47;;;;;;;6.53;1.40;;;;;;;27.55;52.38;100901.72;5220528;28;20027;-78
2021/06/16 05:16:17;;;;;;;6.30;1.40;;;;;;;27.87;51.54;100895.78;5218260;28;20035;-77
2021/06/16 05:18:48;;;;;;;6.83;1.40;;;;;;;26.91;53.55;100895.66;5220961;28;20668;-78
2021/06/16 05:21:18;;;;;;;6.13;1.45;;;;;;;26.77;55.04;100898.00;5218991;28;20276;-77
2021/06/16 05:23:49;;;;;;;8.60;1.95;;;;;;;25.02;57.06;100896.84;5221625;28;20040;-78
2021/06/16 05:26:19;;;;;;;6.60;1.60;;;;;;;24.30;59.16;100898.94;5237797;28;20021;-78
2021/06/16 05:28:49;;;;;;;5.75;1.50;;;;;;;26.01;56.16;100887.53;5224227;28;20029;-77
2021/06/16 05:31:20;;;;;;;9.27;1.73;;;;;;;26.51;54.68;100893.47;5222772;28;20029;-78
2021/06/16 05:33:50;;;;;;;7.35;1.65;;;;;;;27.32;53.65;100888.91;5227695;28;20842;-78
2021/06/16 05:36:20;;;;;;;10.03;1.83;;;;;;;26.80;55.10;100893.16;5233744;28;20021;-77
2021/06/16 05:38:52;;;;;;;6.38;1.40;;;;;;;26.32;56.31;100897.03;5222348;28;20355;-77
2021/06/16 05:41:22;;;;;;;4.50;1.40;;;;;;;24.85;60.34;100894.81;5218898;28;20025;-77
2021/06/16 05:43:52;;;;;;;8.82;1.80;;;;;;;26.91;55.79;100889.47;5222866;28;20044;-79
2021/06/16 05:46:23;;;;;;;9.00;1.90;;;;;;;24.63;60.52;100888.84;5220318;28;20109;-77
2021/06/16 05:48:53;;;;;;;5.73;1.70;;;;;;;23.82;63.24;100893.31;5224690;28;20279;-78
2021/06/16 05:51:23;;;;;;;7.25;1.60;;;;;;;20.83;72.02;100901.28;5221910;28;20271;-77
2021/06/16 05:53:53;;;;;;;5.73;1.90;;;;;;;22.08;69.20;100890.00;5224658;28;20028;-79
2021/06/16 05:56:24;;;;;;;6.90;1.83;;;;;;;22.53;68.27;100891.72;5242124;28;20290;-77
2021/06/16 05:58:54;;;;;;;6.77;2.23;;;;;;;20.98;74.40;100897.56;5222424;28;20661;-76
2021/06/16 06:01:24;;;;;;;7.20;1.83;;;;;;;21.91;70.02;100891.31;5225271;28;20375;-77
2021/06/16 06:03:54;;;;;;;8.00;2.20;;;;;;;22.23;70.26;100883.50;5229530;28;20282;-77
2021/06/16 06:06:26;;;;;;;12.82;2.03;;;;;;;22.49;69.46;100876.97;5235450;28;20316;-77
2021/06/16 06:08:56;;;;;;;7.70;2.15;;;;;;;23.11;68.71;100877.13;5223692;28;20403;-76
2021/06/16 06:11:26;;;;;;;4.88;1.77;;;;;;;21.85;73.28;100888.25;5222347;28;20044;-77
2021/06/16 06:13:57;;;;;;;7.75;2.35;;;;;;;23.10;68.39;100883.41;5223896;28;20681;-77
2021/06/16 06:16:27;;;;;;;9.57;1.97;;;;;;;23.25;66.17;100873.31;5221046;28;20037;-77
2021/06/16 06:18:57;;;;;;;8.57;2.00;;;;;;;23.26;68.21;100872.34;5224203;28;20615;-78
2021/06/16 06:21:31;;;;;;;7.60;1.73;;;;;;;22.33;71.88;100873.78;5221834;28;20311;-77
2021/06/16 06:24:03;;;;;;;5.25;2.03;;;;;;;22.39;70.58;100878.69;5224246;28;20344;-77
2021/06/16 06:26:33;;;;;;;6.07;2.13;;;;;;;23.89;66.93;100870.44;5241434;28;20043;-77
2021/06/16 06:29:04;;;;;;;5.78;1.95;;;;;;;24.40;65.63;100865.91;5224403;28;20569;-77
2021/06/16 06:31:34;;;;;;;7.80;1.90;;;;;;;25.00;65.00;100872.00;5223296;28;20032;-77
2021/06/16 06:34:05;;;;;;;6.60;2.03;;;;;;;24.14;65.91;100870.03;5230881;28;20029;-77
2021/06/16 06:36:35;;;;;;;4.45;1.90;;;;;;;24.17;68.69;100868.91;5227794;28;20280;-78
2021/06/16 06:39:06;;;;;;;5.28;1.75;;;;;;;23.59;68.39;100873.03;5217408;28;20105;-76
2021/06/16 06:41:36;;;;;;;4.00;1.73;;;;;;;24.87;63.67;100860.75;5220695;28;20591;-79
2021/06/16 06:44:07;;;;;;;7.07;1.83;;;;;;;24.86;65.39;100863.56;5214273;28;20495;-77
2021/06/16 06:46:37;;;;;;;6.97;2.10;;;;;;;25.25;65.48;100860.81;5215181;28;20035;-78
2021/06/16 06:49:08;;;;;;;5.32;2.08;;;;;;;24.83;64.37;100859.31;5218745;28;20033;-77
2021/06/16 06:51:39;;;;;;;7.10;1.77;;;;;;;25.72;63.40;100854.59;5221552;28;20032;-77
2021/06/16 06:54:09;;;;;;;5.53;1.95;;;;;;;26.04;60.95;100851.56;5221164;28;20044;-77
2021/06/16 06:56:39;;;;;;;6.80;1.83;;;;;;;25.65;62.35;100856.13;5239324;28;20035;-77
2021/06/16 06:59:10;;;;;;;4.97;1.90;;;;;;;25.79;61.68;100854.84;5223416;28;20057;-78
2021/06/16 07:01:40;;;;;;;7.60;2.10;;;;;;;26.48;60.33;100856.22;5220257;28;20036;-78
2021/06/16 07:04:10;;;;;;;4.90;1.80;;;;;;;26.53;58.11;100845.91;5220639;28;20022;-79
2021/06/16 07:06:41;;;;;;;5.50;2.00;;;;;;;25.37;63.04;100861.53;5222152;28;20271;-78
2021/06/16 07:09:11;;;;;;;5.38;1.98;;;;;;;25.88;61.96;100852.19;5239242;28;20044;-78
2021/06/16 07:11:41;;;;;;;4.77;1.80;;;;;;;25.99;62.60;100856.53;5223963;28;20368;-78
2021/06/16 07:14:12;;;;;;;7.77;2.07;;;;;;;25.84;63.24;100849.91;5218483;28;20294;-78
2021/06/16 07:16:43;;;;;;;6.32;1.90;;;;;;;26.73;59.71;100859.91;5241954;22;20315;-79
2021/06/16 07:19:13;;;;;;;5.60;2.00;;;;;;;27.19;59.16;100854.38;5239068;28;20091;-80
2021/06/16 07:21:44;;;;;;;4.47;1.92;;;;;;;27.63;58.71;100848.03;5235055;28;20045;-80
2021/06/16 07:24:17;;;;;;;5.60;2.00;;;;;;;27.59;58.03;100837.78;5238127;28;20048;-80
2021/06/16 07:26:47;;;;;;;5.50;1.92;;;;;;;27.33;59.56;100837.75;5239597;28;20031;-79
2021/06/16 07:29:18;;;;;;;4.32;2.03;;;;;;;27.38;58.96;100846.16;5237225;28;20016;-80
2021/06/16 07:31:49;;;;;;;4.85;1.98;;;;;;;27.58;58.14;100844.16;5234547;28;20028;-81
2021/06/16 07:34:19;;;;;;;9.15;2.30;;;;;;;27.64;56.87;100838.97;5238708;28;20090;-78
2021/06/16 07:36:50;;;;;;;8.13;2.67;;;;;;;27.85;57.53;100839.53;5238362;28;20024;-79
2021/06/16 07:39:21;;;;;;;5.13;2.30;;;;;;;27.52;59.16;100836.72;5238051;28;20096;-81
2021/06/16 07:41:51;;;;;;;6.65;2.30;;;;;;;28.30;58.38;100832.03;5235055;28;20502;-81
2021/06/16 07:44:22;;;;;;;5.85;1.90;;;;;;;29.05;59.28;100837.41;5237029;28;20424;-79
2021/06/16 07:46:53;;;;;;;5.10;2.08;;;;;;;29.46;57.65;100828.31;5234230;28;20035;-79
2021/06/16 07:49:25;;;;;;;4.18;2.05;;;;;;;29.26;55.03;100835.88;5238635;28;20032;-79
2021/06/16 07:51:55;;;;;;;7.30;2.70;;;;;;;28.96;55.87;100828.47;5230909;28;20033;-78
2021/06/16 07:54:25;;;;;;;8.30;2.50;;;;;;;28.66;57.62;100825.47;5233487;28;20028;-78
2021/06/16 07:56:56;;;;;;;7.82;2.85;;;;;;;28.06;57.14;100831.06;5231955;28;20081;-78
2021/06/16 07:59:26;;;;;;;6.38;2.92;;;;;;;27.87;59.18;100836.66;5236820;28;20023;-77
2021/06/16 08:01:57;;;;;;;7.93;2.90;;;;;;;28.74;58.78;100825.53;5233081;28;20028;-77
2021/06/16 08:04:27;;;;;;;7.93;3.05;;;;;;;28.56;58.05;100824.78;5236844;28;20029;-79
2021/06/16 08:06:58;;;;;;;5.63;2.90;;;;;;;28.28;58.61;100831.34;5237557;28;20112;-76
2021/06/16 08:09:28;;;;;;;6.50;3.30;;;;;;;29.01;58.83;100827.94;5237620;28;20032;-78
2021/06/16 08:11:58;;;;;;;5.90;2.87;;;;;;;28.58;60.24;100832.69;5237683;28;20498;-78
2021/06/16 08:14:28;;;;;;;7.10;3.47;;;;;;;29.22;58.37;100820.25;5237141;28;20028;-76
2021/06/16 08:16:59;;;;;;;7.57;3.38;;;;;;;29.32;59.19;100819.06;5241541;28;20029;-79
2021/06/16 08:19:30;;;;;;;7.97;3.70;;;;;;;27.89;60.79;100824.75;5238595;28;20063;-77
2021/06/16 08:22:00;;;;;;;10.07;4.13;;;;;;;29.06;59.10;100825.63;5235424;28;20444;-78
2021/06/16 08:24:31;;;;;;;7.15;3.10;;;;;;;29.26;58.35;100824.28;5232391;28;20056;-78
2021/06/16 08:27:01;;;;;;;8.55;3.78;;;;;;;29.07;59.72;100820.06;5229505;28;20029;-79
2021/06/16 08:29:32;;;;;;;10.60;3.67;;;;;;;29.87;59.70;100819.22;5239654;28;20093;-77
2021/06/16 08:32:03;;;;;;;8.73;3.30;;;;;;;30.51;58.58;100822.59;5241326;28;20040;-78
2021/06/16 08:34:35;;;;;;;9.60;3.70;;;;;;;29.51;59.68;100817.91;5239525;28;20029;-78
2021/06/16 08:37:06;;;;;;;7.72;3.53;;;;;;;29.51;62.58;100817.91;5232518;28;20028;-79
2021/06/16 08:39:36;;;;;;;9.25;3.85;;;;;;;30.43;59.35;100810.97;5231002;28;20021;-77
2021/06/16 08:42:09;;;;;;;7.47;4.10;;;;;;;29.50;61.50;100809.00;5238242;28;20017;-79
2021/06/16 08:44:40;;;;;;;7.47;4.15;;;;;;;30.11;60.08;100795.75;5235504;28;20036;-79
2021/06/16 08:47:10;;;;;;;10.20;3.88;;;;;;;29.73;60.75;100799.19;5234118;28;20021;-80
2021/06/16 08:49:40;;;;;;;8.20;3.97;;;;;;;29.16;61.88;100800.22;5237014;28;20088;-78
2021/06/16 08:52:11;;;;;;;7.23;4.00;;;;;;;29.80;62.22;100802.03;5235293;28;20418;-79
2021/06/16 08:54:41;;;;;;;9.20;4.23;;;;;;;30.02;59.95;100802.16;5235637;28;20032;-80
2021/06/16 08:57:12;;;;;;;9.80;5.55;;;;;;;30.61;59.00;100792.72;5229342;28;20123;-80
2021/06/16 08:59:42;;;;;;;13.77;10.68;;;;;;;29.50;62.37;100794.66;5235151;28;20278;-77
2021/06/16 09:02:13;;;;;;;14.90;6.55;;;;;;;30.34;61.69;100807.47;5239863;28;20086;-80
2021/06/16 09:04:44;;;;;;;7.65;5.10;;;;;;;29.33;60.96;100807.28;5234963;28;20028;-80
2021/06/16 09:07:20;;;;;;;9.57;5.38;;;;;;;29.23;61.72;100793.13;5235735;28;20024;-78
2021/06/16 09:10:10;;;;;;;10.73;6.00;;;;;;;29.82;61.87;100787.41;5237419;28;20103;-78
2021/06/16 09:12:58;;;;;;;9.10;5.68;;;;;;;29.35;60.91;100796.31;5232581;28;20025;-80
2021/06/16 09:15:30;;;;;;;8.25;4.88;;;;;;;30.25;60.04;100789.63;5232928;28;20589;-79
2021/06/16 09:18:03;;;;;;;8.10;4.82;;;;;;;31.03;60.06;100792.06;5238845;28;20386;-77
2021/06/16 09:20:41;;;;;;;9.48;5.00;;;;;;;31.48;58.39;100783.97;5237421;28;20107;-80
2021/06/16 09:23:22;;;;;;;11.90;3.80;;;;;;;30.93;57.89;100785.22;5240438;28;20045;-80
2021/06/16 09:26:05;;;;;;;9.10;4.47;;;;;;;32.07;56.29;100776.78;5227136;28;20032;-79
2021/06/16 09:28:38;;;;;;;13.45;4.78;;;;;;;31.40;57.57;100783.19;5240181;28;20404;-79
2021/06/16 09:31:11;;;;;;;7.07;3.90;;;;;;;31.73;58.96;100773.78;5240482;28;20056;-77
2021/06/16 09:33:42;;;;;;;7.95;4.60;;;;;;;30.23;61.94;100782.75;5240751;28;20037;-78
2021/06/16 09:36:15;;;;;;;7.70;4.40;;;;;;;30.30;60.66;100778.31;5240111;28;20094;-77
2021/06/16 09:38:47;;;;;;;7.53;5.25;;;;;;;30.66;59.75;100766.88;5242847;28;20028;-79
2021/06/16 09:41:21;;;;;;;11.05;5.97;;;;;;;31.15;60.09;100766.34;5239653;28;20016;-78
2021/06/16 09:43:55;;;;;;;10.00;5.80;;;;;;;30.61;61.16;100765.72;5241477;28;20017;-80
2021/06/16 09:46:25;;;;;;;11.68;6.15;;;;;;;30.58;60.13;100764.19;5237191;28;20025;-79
2021/06/16 09:48:55;;;;;;;15.10;7.20;;;;;;;29.87;61.56;100768.84;5237310;28;20124;-80
2021/06/16 09:51:27;;;;;;;13.87;6.80;;;;;;;29.13;65.13;100770.06;5242316;28;20024;-79
2021/06/16 09:54:15;;;;;;;12.00;6.10;;;;;;;30.40;62.95;100760.88;5236697;28;20025;-79
2021/06/16 09:56:54;;;;;;;14.60;7.60;;;;;;;29.63;64.80;100763.50;5240608;28;20027;-78
2021/06/16 09:59:45;;;;;;;13.00;6.60;;;;;;;29.72;66.49;100749.00;5232660;28;20077;-79
2021/06/16 10:02:21;;;;;;;12.98;7.78;;;;;;;29.29;66.10;100748.53;5234039;28;20355;-79
2021/06/16 10:05:01;;;;;;;;;;;;;;;28.78;68.16;100759.59;5224716;28;20039;-79
2021/06/16 10:07:33;;;;;;;14.32;8.25;;;;;;;28.71;67.26;100747.81;5229850;28;19932;-78
2021/06/16 10:10:11;;;;;;;15.15;8.70;;;;;;;28.73;68.22;100745.78;5230742;28;20036;-79
2021/06/16 10:12:44;;;;;;;16.05;8.40;;;;;;;28.20;70.19;100747.97;5230322;28;20021;-78
2021/06/16 10:15:16;;;;;;;11.05;7.70;;;;;;;28.41;69.09;100740.34;5231491;28;20111;-78
2021/06/16 10:17:47;;;;;;;17.45;8.90;;;;;;;27.96;70.37;100745.16;5232495;28;20029;-78
2021/06/16 10:20:20;;;;;;;12.90;8.77;;;;;;;27.75;69.58;100750.09;5231753;28;20025;-78
2021/06/16 10:22:51;;;;;;;13.43;8.75;;;;;;;27.34;68.60;100749.97;5239278;28;20016;-79
2021/06/16 10:25:21;;;;;;;14.95;9.45;;;;;;;27.67;70.57;100744.66;5230464;28;20027;-78
2021/06/16 10:27:57;;;;;;;15.13;9.70;;;;;;;27.49;71.00;100741.19;5230355;28;20054;-79
2021/06/16 10:30:32;;;;;;;19.60;10.77;;;;;;;27.00;70.16;100743.63;5231459;28;20289;-79
2021/06/16 10:33:23;;;;;;;15.27;10.30;;;;;;;27.22;74.74;100743.16;5234109;28;20044;-78
2021/06/16 10:36:14;;;;;;;13.90;10.18;;;;;;;27.31;72.07;100740.38;5237613;28;20390;-78
2021/06/16 10:38:56;;;;;;;16.95;9.90;;;;;;;27.65;71.48;100741.25;5235462;28;20067;-80
2021/06/16 10:41:41;;;;;;;19.40;10.02;;;;;;;27.37;71.76;100737.06;5231618;28;20103;-78
2021/06/16 10:44:16;;;;;;;16.07;9.90;;;;;;;27.80;71.44;100739.69;5230010;28;20025;-79
2021/06/16 10:46:52;;;;;;;16.98;10.02;;;;;;;27.81;71.90;100737.88;5222583;28;20045;-79
2021/06/16 10:49:41;;;;;;;19.73;10.50;;;;;;;27.22;71.20;100733.25;5240569;28;20025;-78
2021/06/16 10:52:16;;;;;;;15.60;10.30;;;;;;;27.27;71.86;100741.69;5228331;28;20059;-78
2021/06/16 10:55:00;;;;;;;18.33;9.93;;;;;;;27.31;73.45;100726.94;5232174;28;20051;-79
2021/06/16 10:57:33;;;;;;;14.95;9.07;;;;;;;27.59;72.96;100736.53;5231562;28;20033;-80
2021/06/16 11:00:09;;;;;;;16.13;9.55;;;;;;;27.51;70.92;100727.59;5233579;28;20033;-79
2021/06/16 11:02:41;;;;;;;16.92;9.40;;;;;;;27.69;71.88;100731.06;5238653;28;20078;-80
2021/06/16 11:05:21;;;;;;;15.70;9.13;;;;;;;27.69;73.59;100729.22;5227147;28;20692;-78
2021/06/16 11:07:52;;;;;;;14.25;9.80;;;;;;;27.12;71.83;100727.13;5234687;28;20024;-78
2021/06/16 11:10:43;;;;;;;18.55;9.63;;;;;;;27.27;72.99;100720.22;5236004;28;20036;-79
2021/06/16 11:13:35;;;;;;;13.68;9.07;;;;;;;27.71;74.10;100719.19;5235408;28;20035;-79
2021/06/16 11:16:37;;;;;;;15.73;9.27;;;;;;;27.73;70.87;100727.06;5234212;28;20025;-77
2021/06/16 11:19:26;;;;;;;15.80;8.32;;;;;;;27.71;70.68;100711.13;5232615;28;20029;-78
2021/06/16 11:21:58;;;;;;;14.80;10.18;;;;;;;27.49;72.09;100713.47;5234075;28;20039;-80
2021/06/16 11:24:59;;;;;;;14.75;9.20;;;;;;;27.52;74.93;100703.25;5215135;28;20049;-78
2021/06/16 11:27:51;;;;;;;14.80;8.95;;;;;;;27.65;76.63;100702.81;5229390;28;20051;-80
2021/06/16 11:30:31;;;;;;;17.15;10.30;;;;;;;27.20;74.32;100696.81;5235621;28;20513;-79
2021/06/16 11:33:17;;;;;;;15.95;9.57;;;;;;;27.07;71.63;100686.47;5231544;28;20053;-77
2021/06/16 11:35:58;;;;;;;16.00;8.98;;;;;;;27.25;75.16;100690.00;5230466;28;20032;-79
2021/06/16 11:38:34;;;;;;;14.77;8.52;;;;;;;27.47;73.63;100683.25;5234416;28;20059;-78
2021/06/16 11:41:07;;;;;;;14.90;9.30;;;;;;;27.60;73.58;100684.50;5238950;28;20520;-77
2021/06/16 11:44:08;;;;;;;16.83;9.55;;;;;;;27.69;77.09;100683.53;5237842;28;20028;-79
2021/06/16 11:46:43;;;;;;;17.35;9.43;;;;;;;27.59;74.89;100677.44;5234685;28;20024;-78
2021/06/16 11:49:20;;;;;;;;;;;;;;;27.69;72.78;100672.81;5236174;28;20052;-80
2021/06/16 11:51:56;;;;;;;16.48;9.10;;;;;;;27.81;74.98;100668.00;5232297;28;20086;-79